createdAt,value
2018-08-23T00:00:42.959Z,98645.54
2018-08-23T00:03:16.891Z,98641.41
2018-08-23T00:05:52.538Z,98638.61
2018-08-23T00:08:21.328Z,98639.13
2018-08-23T00:10:50.449Z,98633.54
2018-08-23T00:13:19.290Z,98633.65
2018-08-23T00:15:47.624Z,98629.79
2018-08-23T00:18:16.047Z,98624.20
2018-08-23T00:20:44.390Z,98616.56
2018-08-23T00:23:12.688Z,98628.96
2018-08-23T00:25:40.998Z,98627.49
2018-08-23T00:28:09.529Z,98622.02
2018-08-23T00:30:38.156Z,98622.84
2018-08-23T00:33:06.890Z,98619.83
2018-08-23T00:35:36.630Z,98614.88
2018-08-23T00:38:05.926Z,98611.52
2018-08-23T00:40:38.226Z,98612.31
2018-08-23T00:43:07.812Z,98610.25
2018-08-23T00:45:36.192Z,98609.04
2018-08-23T00:48:04.546Z,98615.83
2018-08-23T00:50:48.857Z,98615.78
2018-08-23T00:53:17.376Z,98616.84
2018-08-23T00:55:45.682Z,98617.34
2018-08-23T00:58:13.971Z,98617.78
2018-08-23T01:00:48.270Z,98614.33
2018-08-23T01:03:17.162Z,98613.11
2018-08-23T01:05:45.986Z,98616.59
2018-08-23T01:08:14.653Z,98621.30
2018-08-23T01:10:42.948Z,98617.42
2018-08-23T01:13:11.252Z,98613.80
2018-08-23T01:15:40.788Z,98614.95
2018-08-23T01:18:18.274Z,98610.47
2018-08-23T01:20:47.669Z,98611.81
2018-08-23T01:23:16.050Z,98609.59
2018-08-23T01:25:46.463Z,98609.08
2018-08-23T01:28:14.805Z,98606.52
2018-08-23T01:30:43.721Z,98608.09
2018-08-23T01:33:12.942Z,98606.55
2018-08-23T01:35:42.623Z,98608.64
2018-08-23T01:38:11.526Z,98613.28
2018-08-23T01:40:39.853Z,98605.20
2018-08-23T01:43:08.207Z,98613.80
2018-08-23T01:45:36.558Z,98607.57
2018-08-23T01:48:06.959Z,98605.63
2018-08-23T01:50:35.314Z,98601.91
2018-08-23T01:53:03.610Z,98604.78
2018-08-23T01:55:31.897Z,98598.30
2018-08-23T01:58:00.286Z,98601.14
2018-08-23T02:00:29.768Z,98595.83
2018-08-23T02:02:58.086Z,98594.23
2018-08-23T02:05:26.361Z,98594.66
2018-08-23T02:07:54.743Z,98588.83
2018-08-23T02:10:23.035Z,98583.34
2018-08-23T02:12:52.529Z,98590.47
2018-08-23T02:15:20.992Z,98581.87
2018-08-23T02:17:56.431Z,98585.08
2018-08-23T02:20:25.693Z,98588.84
2018-08-23T02:22:54.618Z,98584.45
2018-08-23T02:25:22.890Z,98587.08
2018-08-23T02:27:59.470Z,98586.61
2018-08-23T02:30:42.363Z,98583.53
2018-08-23T02:33:11.888Z,98583.62
2018-08-23T02:35:40.670Z,98580.92
2018-08-23T02:38:09.663Z,98583.34
2018-08-23T02:40:39.199Z,98582.13
2018-08-23T02:43:07.474Z,98576.88
2018-08-23T02:45:41.062Z,98583.62
2018-08-23T02:48:09.438Z,98577.58
2018-08-23T02:50:37.730Z,98580.86
2018-08-23T02:53:24.524Z,98588.52
2018-08-23T02:55:53.836Z,98588.86
2018-08-23T02:58:23.331Z,98584.23
2018-08-23T03:00:51.670Z,98576.41
2018-08-23T03:03:19.995Z,98586.83
2018-08-23T03:05:48.324Z,98590.02
2018-08-23T03:08:16.784Z,98585.82
2018-08-23T03:10:45.115Z,98583.82
2018-08-23T03:13:13.388Z,98583.93
2018-08-23T03:15:41.728Z,98582.77
2018-08-23T03:18:10.030Z,98579.14
2018-08-23T03:20:38.962Z,98576.70
2018-08-23T03:23:07.294Z,98576.54
2018-08-23T03:25:35.788Z,98574.11
2018-08-23T03:28:04.185Z,98573.77
2018-08-23T03:30:32.552Z,98570.66
2018-08-23T03:33:00.939Z,98570.82
2018-08-23T03:35:29.291Z,98565.57
2018-08-23T03:37:57.600Z,98572.39
2018-08-23T03:40:25.918Z,98576.22
2018-08-23T03:42:54.198Z,98574.67
2018-08-23T03:45:28.094Z,98575.53
2018-08-23T03:47:56.749Z,98577.00
2018-08-23T03:50:25.070Z,98582.52
2018-08-23T03:52:54.650Z,98574.34
2018-08-23T03:55:24.157Z,98575.40
2018-08-23T03:58:07.336Z,98574.61
2018-08-23T04:00:46.792Z,98572.94
2018-08-23T04:03:19.590Z,98568.13
2018-08-23T04:05:48.202Z,98565.42
2018-08-23T04:08:16.623Z,98568.64
2018-08-23T04:10:45.037Z,98564.20
2018-08-23T04:13:13.361Z,98567.48
2018-08-23T04:15:41.679Z,98572.73
2018-08-23T04:18:14.122Z,98567.22
2018-08-23T04:20:51.555Z,98573.72
2018-08-23T04:23:19.904Z,98571.40
2018-08-23T04:25:48.196Z,98576.44
2018-08-23T04:28:16.565Z,98573.53
2018-08-23T04:30:44.818Z,98571.28
2018-08-23T04:33:13.335Z,98570.38
2018-08-23T04:35:41.646Z,98569.16
2018-08-23T04:38:09.941Z,98575.91
2018-08-23T04:40:38.238Z,98570.29
2018-08-23T04:43:06.589Z,98569.83
2018-08-23T04:45:34.893Z,98562.66
2018-08-23T04:48:09.360Z,98565.29
2018-08-23T04:50:39.103Z,98574.41
2018-08-23T04:53:07.411Z,98576.57
2018-08-23T04:55:35.656Z,98574.70
2018-08-23T04:58:04.681Z,98573.42
2018-08-23T05:00:33.181Z,98565.66
2018-08-23T05:03:01.524Z,98574.20
2018-08-23T05:05:29.833Z,98578.33
2018-08-23T05:07:58.145Z,98578.33
2018-08-23T05:10:26.487Z,98567.50
2018-08-23T05:12:54.866Z,98558.50
2018-08-23T05:15:23.152Z,98564.56
2018-08-23T05:17:51.469Z,98557.88
2018-08-23T05:20:20.098Z,98558.52
2018-08-23T05:22:54.050Z,98560.61
2018-08-23T05:25:23.584Z,98559.39
2018-08-23T05:28:07.308Z,98563.06
2018-08-23T05:30:36.637Z,98562.65
2018-08-23T05:33:10.421Z,98557.13
2018-08-23T05:35:39.097Z,98559.69
2018-08-23T05:38:08.207Z,98554.96
2018-08-23T05:40:42.410Z,98555.54
2018-08-23T05:43:11.073Z,98555.39
2018-08-23T05:45:44.693Z,98550.44
2018-08-23T05:48:22.931Z,98545.21
2018-08-23T05:50:51.456Z,98551.41
2018-08-23T05:53:20.419Z,98547.88
2018-08-23T05:55:52.784Z,98550.02
2018-08-23T05:58:25.463Z,98545.38
2018-08-23T06:00:55.014Z,98538.79
2018-08-23T06:03:24.458Z,98543.03
2018-08-23T06:05:53.646Z,98540.48
2018-08-23T06:08:22.014Z,98534.55
2018-08-23T06:10:55.697Z,98532.98
2018-08-23T06:13:23.955Z,98527.80
2018-08-23T06:15:53.402Z,98528.45
2018-08-23T06:18:22.286Z,98517.07
2018-08-23T06:20:50.583Z,98522.84
2018-08-23T06:23:19.398Z,98521.70
2018-08-23T06:25:48.354Z,98524.56
2018-08-23T06:28:19.458Z,98524.58
2018-08-23T06:30:47.894Z,98521.70
2018-08-23T06:33:31.999Z,98526.59
2018-08-23T06:36:00.147Z,98520.82
2018-08-23T06:38:28.817Z,98515.23
2018-08-23T06:40:57.507Z,98520.55
2018-08-23T06:43:25.783Z,98524.48
2018-08-23T06:45:54.067Z,98522.19
2018-08-23T06:48:22.364Z,98521.05
2018-08-23T06:50:55.922Z,98521.67
2018-08-23T06:53:30.111Z,98521.14
2018-08-23T06:55:59.040Z,98526.05
2018-08-23T06:58:27.515Z,98525.62
2018-08-23T07:00:56.223Z,98517.05
2018-08-23T07:03:24.673Z,98512.43
2018-08-23T07:05:52.983Z,98516.19
2018-08-23T07:08:23.445Z,98514.80
2018-08-23T07:11:00.431Z,98509.98
2018-08-23T07:13:28.695Z,98507.31
2018-08-23T07:15:59.946Z,98499.95
2018-08-23T07:18:29.829Z,98498.94
2018-08-23T07:20:58.150Z,98501.59
2018-08-23T07:23:31.679Z,98504.64
2018-08-23T07:25:59.992Z,98506.30
2018-08-23T07:28:28.265Z,98499.81
2018-08-23T07:30:56.586Z,98502.23
2018-08-23T07:33:24.984Z,98505.63
2018-08-23T07:36:04.576Z,98503.12
2018-08-23T07:38:32.883Z,98509.03
2018-08-23T07:41:01.244Z,98506.62
2018-08-23T07:43:29.505Z,98511.36
2018-08-23T07:45:57.803Z,98511.72
2018-08-23T07:48:26.190Z,98507.63
2018-08-23T07:50:55.617Z,98507.33
2018-08-23T07:53:24.234Z,98512.41
2018-08-23T07:55:52.462Z,98506.55
2018-08-23T07:58:20.765Z,98511.36
2018-08-23T08:00:49.082Z,98505.11
2018-08-23T08:03:17.454Z,98507.45
2018-08-23T08:05:46.331Z,98511.11
2018-08-23T08:08:14.777Z,98506.42
2018-08-23T08:10:45.153Z,98508.84
2018-08-23T08:13:13.527Z,98506.73
2018-08-23T08:15:41.783Z,98509.02
2018-08-23T08:18:23.708Z,98508.40
2018-08-23T08:21:02.335Z,98508.55
2018-08-23T08:23:31.070Z,98508.56
2018-08-23T08:25:59.345Z,98509.41
2018-08-23T08:28:27.642Z,98513.13
2018-08-23T08:30:57.559Z,98509.19
2018-08-23T08:33:26.346Z,98512.05
2018-08-23T08:36:00.360Z,98502.50
2018-08-23T08:38:28.755Z,98495.23
2018-08-23T08:40:57.091Z,98492.03
2018-08-23T08:43:26.702Z,98489.78
2018-08-23T08:45:57.198Z,98484.91
2018-08-23T08:48:32.569Z,98485.42
2018-08-23T08:51:23.493Z,98479.02
2018-08-23T08:53:52.361Z,98476.20
2018-08-23T08:56:28.879Z,98473.94
2018-08-23T08:58:57.170Z,98474.61
2018-08-23T09:01:25.463Z,98466.56
2018-08-23T09:03:53.735Z,98470.66
2018-08-23T09:06:55.956Z,98463.45
2018-08-23T09:09:31.275Z,98470.05
2018-08-23T09:12:02.395Z,98462.22
2018-08-23T09:14:30.707Z,98463.06
2018-08-23T09:16:58.997Z,98453.44
2018-08-23T09:19:38.803Z,98455.42
2018-08-23T09:22:12.540Z,98449.66
2018-08-23T09:24:40.825Z,98445.90
2018-08-23T09:27:17.524Z,98446.00
2018-08-23T09:29:45.968Z,98441.84
2018-08-23T09:32:21.219Z,98438.87
2018-08-23T09:34:49.972Z,98443.34
2018-08-23T09:37:18.285Z,98436.23
2018-08-23T09:39:46.780Z,98440.66
2018-08-23T09:42:15.190Z,98436.81
2018-08-23T09:44:58.826Z,98434.05
2018-08-23T09:47:28.039Z,98433.17
2018-08-23T09:49:56.949Z,98429.03
2018-08-23T09:52:28.474Z,98427.48
2018-08-23T09:54:56.773Z,98424.47
2018-08-23T09:57:25.607Z,98421.48
2018-08-23T09:59:54.776Z,98415.87
2018-08-23T10:02:28.558Z,98410.69
2018-08-23T10:05:00.999Z,98412.02
2018-08-23T10:07:34.670Z,98407.22
2018-08-23T10:10:08.495Z,98409.70
2018-08-23T10:12:42.007Z,98415.42
2018-08-23T10:15:15.763Z,98412.36
2018-08-23T10:17:49.278Z,98403.43
2018-08-23T10:20:22.847Z,98399.34
2018-08-23T10:23:00.104Z,98402.48
2018-08-23T10:25:53.160Z,98394.80
2018-08-23T10:28:22.723Z,98390.06
2018-08-23T10:30:51.260Z,98390.04
2018-08-23T10:33:19.594Z,98388.74
2018-08-23T10:35:51.063Z,98395.69
2018-08-23T10:38:20.679Z,98389.63
2018-08-23T10:40:49.961Z,98397.14
2018-08-23T10:43:22.459Z,98384.53
2018-08-23T10:46:09.129Z,98387.70
2018-08-23T10:48:37.447Z,98387.94
2018-08-23T10:51:07.182Z,98382.59
2018-08-23T10:53:40.524Z,98375.69
2018-08-23T10:56:12.336Z,98387.11
2018-08-23T10:58:44.147Z,98373.48
2018-08-23T11:01:16.312Z,98366.66
2018-08-23T11:03:48.275Z,98361.13
2018-08-23T11:06:24.020Z,98366.09
2018-08-23T11:08:59.798Z,98370.80
2018-08-23T11:11:35.322Z,98362.91
2018-08-23T11:14:09.528Z,98363.25
2018-08-23T11:16:49.546Z,98357.63
2018-08-23T11:19:27.694Z,98365.34
2018-08-23T11:21:58.191Z,98349.53
2018-08-23T11:24:26.557Z,98347.44
2018-08-23T11:26:54.914Z,98348.61
2018-08-23T11:29:23.434Z,98344.50
2018-08-23T11:31:51.882Z,98336.74
2018-08-23T11:34:20.585Z,98333.50
2018-08-23T11:36:48.979Z,98329.84
2018-08-23T11:39:17.391Z,98333.73
2018-08-23T11:41:45.742Z,98329.59
2018-08-23T11:44:14.061Z,98336.44
2018-08-23T11:46:42.384Z,98322.24
2018-08-23T11:49:10.714Z,98323.02
2018-08-23T11:51:39.083Z,98315.29
2018-08-23T11:54:07.416Z,98309.95
2018-08-23T11:56:35.929Z,98312.10
2018-08-23T11:59:04.308Z,98309.60
2018-08-23T12:01:32.552Z,98315.88
2018-08-23T12:04:01.264Z,98308.73
2018-08-23T12:06:29.950Z,98305.98
2018-08-23T12:08:58.298Z,98307.95
2018-08-23T12:11:26.643Z,98301.00
2018-08-23T12:13:55.115Z,98299.08
2018-08-23T12:16:23.741Z,98298.60
2018-08-23T12:18:52.280Z,98306.30
2018-08-23T12:21:20.651Z,98296.32
2018-08-23T12:23:49.119Z,98299.02
2018-08-23T12:26:17.478Z,98290.31
2018-08-23T12:28:51.165Z,98287.30
2018-08-23T12:31:19.482Z,98281.05
2018-08-23T12:33:47.819Z,98292.61
2018-08-23T12:36:20.366Z,98286.27
2018-08-23T12:38:54.135Z,98277.97
2018-08-23T12:41:28.124Z,98276.30
2018-08-23T12:43:56.754Z,98269.45
2018-08-23T12:46:25.411Z,98271.09
2018-08-23T12:48:56.949Z,98270.59
2018-08-23T12:51:25.292Z,98267.02
2018-08-23T12:53:54.533Z,98265.91
2018-08-23T12:56:23.035Z,98265.09
2018-08-23T12:58:52.507Z,98257.13
2018-08-23T13:01:22.883Z,98260.14
2018-08-23T13:03:51.414Z,98257.66
2018-08-23T13:06:19.889Z,98246.12
2018-08-23T13:08:48.301Z,98247.49
2018-08-23T13:11:16.892Z,98244.75
2018-08-23T13:13:45.770Z,98239.21
2018-08-23T13:16:14.247Z,98237.27
2018-08-23T13:18:42.918Z,98244.67
2018-08-23T13:21:11.398Z,98241.06
2018-08-23T13:23:44.093Z,98240.27
2018-08-23T13:26:12.693Z,98232.23
2018-08-23T13:28:41.342Z,98224.73
2018-08-23T13:31:09.892Z,98215.74
2018-08-23T13:33:38.518Z,98214.68
2018-08-23T13:36:07.014Z,98209.75
2018-08-23T13:38:35.569Z,98221.58
2018-08-23T13:41:04.343Z,98217.45
2018-08-23T13:43:32.954Z,98209.23
2018-08-23T13:46:01.471Z,98205.89
2018-08-23T13:48:29.988Z,98200.96
2018-08-23T13:50:58.285Z,98197.69
2018-08-23T13:53:26.731Z,98199.86
2018-08-23T13:55:55.591Z,98204.28
2018-08-23T13:58:23.980Z,98192.15
2018-08-23T14:00:52.443Z,98196.55
2018-08-23T14:03:20.757Z,98192.67
2018-08-23T14:05:49.094Z,98197.38
2018-08-23T14:08:17.382Z,98182.50
2018-08-23T14:10:46.063Z,98180.83
2018-08-23T14:13:14.588Z,98184.44
2018-08-23T14:15:48.392Z,98188.29
2018-08-23T14:18:17.052Z,98184.19
2018-08-23T14:20:45.856Z,98171.23
2018-08-23T14:23:14.261Z,98154.69
2018-08-23T14:25:44.035Z,98179.73
2018-08-23T14:28:12.704Z,98173.73
2018-08-23T14:30:41.253Z,98167.08
2018-08-23T14:33:09.635Z,98160.98
2018-08-23T14:35:38.034Z,98159.55
2018-08-23T14:38:06.983Z,98150.76
2018-08-23T14:40:35.747Z,98148.72
2018-08-23T14:43:04.215Z,98155.30
2018-08-23T14:45:33.662Z,98147.59
2018-08-23T14:48:07.663Z,98141.78
2018-08-23T14:50:37.186Z,98141.43
2018-08-23T14:53:06.840Z,98141.57
2018-08-23T14:55:40.888Z,98137.50
2018-08-23T14:58:10.168Z,98130.15
2018-08-23T15:00:38.605Z,98122.86
2018-08-23T15:03:07.143Z,98121.78
2018-08-23T15:05:35.719Z,98125.77
2018-08-23T15:08:04.430Z,98120.52
2018-08-23T15:10:32.991Z,98117.81
2018-08-23T15:13:01.416Z,98118.05
2018-08-23T15:15:35.225Z,98127.20
2018-08-23T15:18:04.240Z,98128.08
2018-08-23T15:20:32.569Z,98126.15
2018-08-23T15:23:01.268Z,98118.73
2018-08-23T15:25:29.851Z,98120.11
2018-08-23T15:27:58.138Z,98123.64
2018-08-23T15:30:26.544Z,98125.56
2018-08-23T15:32:54.994Z,98119.27
2018-08-23T15:35:23.539Z,98123.94
2018-08-23T15:37:51.878Z,98128.08
2018-08-23T15:40:20.549Z,98123.63
2018-08-23T15:42:49.254Z,98123.93
2018-08-23T15:45:18.400Z,98129.17
2018-08-23T15:47:46.759Z,98119.02
2018-08-23T15:50:15.248Z,98125.07
2018-08-23T15:52:43.787Z,98118.47
2018-08-23T15:55:12.241Z,98126.98
2018-08-23T15:57:40.775Z,98117.30
2018-08-23T16:00:10.198Z,98118.71
2018-08-23T16:02:38.864Z,98118.64
2018-08-23T16:05:07.307Z,98125.59
2018-08-23T16:07:35.727Z,98124.49
2018-08-23T16:10:06.103Z,98123.67
2018-08-23T16:12:34.425Z,98120.36
2018-08-23T16:15:07.109Z,98120.95
2018-08-23T16:17:40.848Z,98120.11
2018-08-23T16:20:14.538Z,98108.56
2018-08-23T16:22:42.879Z,98101.96
2018-08-23T16:25:11.283Z,98114.09
2018-08-23T16:27:39.600Z,98107.46
2018-08-23T16:30:08.063Z,98110.22
2018-08-23T16:32:36.839Z,98100.84
2018-08-23T16:35:05.273Z,98106.34
2018-08-23T16:37:34.512Z,98106.09
2018-08-23T16:40:03.132Z,98099.77
2018-08-23T16:42:32.252Z,98102.23
2018-08-23T16:45:01.370Z,98096.77
2018-08-23T16:47:29.703Z,98101.38
2018-08-23T16:49:58.034Z,98107.17
2018-08-23T16:52:31.700Z,98107.47
2018-08-23T16:54:59.963Z,98113.43
2018-08-23T16:57:28.404Z,98104.36
2018-08-23T16:59:56.681Z,98104.09
2018-08-23T17:02:25.083Z,98099.11
2018-08-23T17:04:53.386Z,98107.66
2018-08-23T17:07:21.675Z,98101.81
2018-08-23T17:09:49.991Z,98100.76
2018-08-23T17:12:18.526Z,98102.36
2018-08-23T17:14:46.948Z,98097.97
2018-08-23T17:17:20.563Z,98108.89
2018-08-23T17:19:48.946Z,98099.28
2018-08-23T17:22:17.543Z,98107.80
2018-08-23T17:24:45.856Z,98112.47
2018-08-23T17:27:14.171Z,98107.48
2018-08-23T17:29:42.530Z,98119.88
2018-08-23T17:32:11.076Z,98124.77
2018-08-23T17:34:39.367Z,98117.88
2018-08-23T17:37:07.701Z,98123.04
2018-08-23T17:39:36.029Z,98125.78
2018-08-23T17:42:04.491Z,98125.98
2018-08-23T17:44:33.311Z,98125.44
2018-08-23T17:47:02.000Z,98123.20
2018-08-23T17:49:33.093Z,98129.80
2018-08-23T17:52:02.297Z,98128.13
2018-08-23T17:54:30.857Z,98132.94
2018-08-23T17:56:59.225Z,98136.42
2018-08-23T17:59:27.630Z,98138.03
2018-08-23T18:01:55.932Z,98148.06
2018-08-23T18:04:24.380Z,98138.48
2018-08-23T18:06:59.301Z,98137.50
2018-08-23T18:09:27.709Z,98137.48
2018-08-23T18:11:56.678Z,98137.59
2018-08-23T18:14:25.157Z,98138.59
2018-08-23T18:17:00.807Z,98134.67
2018-08-23T18:19:29.228Z,98135.08
2018-08-23T18:21:58.982Z,98139.41
2018-08-23T18:24:27.372Z,98135.76
2018-08-23T18:26:56.403Z,98144.96
2018-08-23T18:29:24.902Z,98145.22
2018-08-23T18:31:53.633Z,98151.49
2018-08-23T18:34:21.988Z,98148.33
2018-08-23T18:36:52.026Z,98148.51
2018-08-23T18:39:21.827Z,98143.83
2018-08-23T18:41:50.151Z,98161.52
2018-08-23T18:44:18.606Z,98155.25
2018-08-23T18:46:46.935Z,98156.02
2018-08-23T18:49:15.397Z,98157.45
2018-08-23T18:51:44.839Z,98160.55
2018-08-23T18:54:13.272Z,98161.57
2018-08-23T18:56:41.670Z,98171.25
2018-08-23T18:59:10.223Z,98167.80
2018-08-23T19:01:38.668Z,98164.38
2018-08-23T19:04:07.064Z,98168.33
2018-08-23T19:06:36.891Z,98170.64
2018-08-23T19:09:10.910Z,98179.66
2018-08-23T19:11:39.286Z,98179.55
2018-08-23T19:14:07.881Z,98177.82
2018-08-23T19:16:41.451Z,98180.60
2018-08-23T19:19:09.935Z,98184.55
2018-08-23T19:21:38.515Z,98184.84
2018-08-23T19:24:06.468Z,98187.66
2018-08-23T19:26:34.817Z,98186.95
2018-08-23T19:29:03.251Z,98184.72
2018-08-23T19:31:32.740Z,98186.42
2018-08-23T19:34:04.220Z,98185.25
2018-08-23T19:36:33.159Z,98189.16
2018-08-23T19:39:01.531Z,98183.78
2018-08-23T19:41:30.130Z,98188.24
2018-08-23T19:43:58.539Z,98186.55
2018-08-23T19:46:32.170Z,98198.21
2018-08-23T19:49:05.902Z,98189.15
2018-08-23T19:51:34.351Z,98186.86
2018-08-23T19:54:04.009Z,98191.64
2018-08-23T19:56:32.484Z,98192.73
2018-08-23T19:59:00.985Z,98188.78
2018-08-23T20:01:29.290Z,98189.09
2018-08-23T20:03:58.938Z,98195.73
2018-08-23T20:06:27.327Z,98185.94
2018-08-23T20:08:55.662Z,98186.30
2018-08-23T20:11:24.047Z,98187.08
2018-08-23T20:13:53.794Z,98191.12
2018-08-23T20:16:23.672Z,98191.12
2018-08-23T20:18:52.147Z,98187.66
2018-08-23T20:21:20.927Z,98186.68
2018-08-23T20:23:49.759Z,98194.75
2018-08-23T20:26:18.448Z,98189.47
2018-08-23T20:28:46.813Z,98187.73
2018-08-23T20:31:15.125Z,98189.53
2018-08-23T20:33:43.467Z,98188.59
2018-08-23T20:36:11.945Z,98180.78
2018-08-23T20:38:40.939Z,98174.83
2018-08-23T20:41:09.350Z,98180.42
2018-08-23T20:43:38.301Z,98185.66
2018-08-23T20:46:06.691Z,98184.22
2018-08-23T20:48:35.407Z,98185.92
2018-08-23T20:51:03.803Z,98186.63
2018-08-23T20:53:32.168Z,98185.85
2018-08-23T20:56:00.484Z,98194.52
2018-08-23T20:58:29.388Z,98195.05
2018-08-23T21:00:57.699Z,98194.05
2018-08-23T21:03:26.085Z,98194.73
2018-08-23T21:05:54.705Z,98203.49
2018-08-23T21:08:23.028Z,98206.02
2018-08-23T21:10:51.390Z,98211.05
2018-08-23T21:13:19.819Z,98198.12
2018-08-23T21:15:48.421Z,98194.30
2018-08-23T21:18:16.872Z,98196.41
2018-08-23T21:20:45.367Z,98202.59
2018-08-23T21:23:14.362Z,98203.14
2018-08-23T21:25:42.708Z,98208.47
2018-08-23T21:28:11.095Z,98212.64
2018-08-23T21:30:39.377Z,98198.90
2018-08-23T21:33:07.753Z,98203.45
2018-08-23T21:35:36.395Z,98197.27
2018-08-23T21:38:04.781Z,98189.42
2018-08-23T21:40:33.702Z,98187.96
2018-08-23T21:43:02.142Z,98192.45
2018-08-23T21:45:30.774Z,98190.79
2018-08-23T21:47:59.090Z,98190.79
2018-08-23T21:50:27.474Z,98194.34
2018-08-23T21:52:56.207Z,98192.75
2018-08-23T21:55:29.875Z,98191.12
2018-08-23T21:57:58.188Z,98185.80
2018-08-23T22:00:26.587Z,98186.94
2018-08-23T22:02:55.225Z,98180.44
2018-08-23T22:05:23.713Z,98168.72
2018-08-23T22:07:52.162Z,98159.91
2018-08-23T22:10:20.531Z,98154.00
2018-08-23T22:12:48.870Z,98156.31
2018-08-23T22:15:17.314Z,98153.17
2018-08-23T22:17:45.699Z,98149.46
2018-08-23T22:20:26.777Z,98153.30
2018-08-23T22:22:55.139Z,98148.16
2018-08-23T22:25:23.850Z,98156.50
2018-08-23T22:27:52.381Z,98157.03
2018-08-23T22:30:20.831Z,98153.56
2018-08-23T22:32:49.139Z,98149.34
2018-08-23T22:35:17.496Z,98143.91
2018-08-23T22:37:45.823Z,98154.47
2018-08-23T22:40:14.328Z,98150.09
2018-08-23T22:42:42.957Z,98152.36
2018-08-23T22:45:11.270Z,98149.11
2018-08-23T22:47:39.559Z,98149.05
2018-08-23T22:50:08.351Z,98139.55
2018-08-23T22:52:36.683Z,98141.37
2018-08-23T22:55:05.014Z,98141.39
2018-08-23T22:57:33.381Z,98133.61
2018-08-23T23:00:01.716Z,98144.25
2018-08-23T23:02:35.503Z,98132.47
2018-08-23T23:05:04.252Z,98125.52
2018-08-23T23:07:32.713Z,98119.48
2018-08-23T23:10:01.064Z,98123.81
2018-08-23T23:12:29.772Z,98125.00
2018-08-23T23:14:59.024Z,98133.56
2018-08-23T23:17:29.056Z,98127.04
2018-08-23T23:19:57.378Z,98125.37
2018-08-23T23:22:25.886Z,98132.41
2018-08-23T23:24:59.750Z,98133.23
2018-08-23T23:27:28.389Z,98127.41
2018-08-23T23:29:57.006Z,98133.55
2018-08-23T23:32:25.359Z,98140.52
2018-08-23T23:34:54.976Z,98142.33
2018-08-23T23:37:23.652Z,98147.33
2018-08-23T23:39:51.988Z,98148.43
2018-08-23T23:42:20.328Z,98141.53
2018-08-23T23:44:48.720Z,98143.23
2018-08-23T23:47:17.155Z,98142.99
2018-08-23T23:49:45.434Z,98141.83
2018-08-23T23:52:13.891Z,98142.73
2018-08-23T23:54:42.208Z,98143.22
2018-08-23T23:57:10.656Z,98137.12
2018-08-23T23:59:39.078Z,98136.14
